sensor_id;sensor_type;location;lat;lon;timestamp;P1;durP1;ratioP1;P2;durP2;ratioP2
3463;SDS011;3551;41.578;24.706;2022-07-29T00:02:04;11.70;;;7.57;;
3463;SDS011;3551;41.578;24.706;2022-07-29T00:04:33;9.73;;;6.90;;
3463;SDS011;3551;41.578;24.706;2022-07-29T00:07:01;7.40;;;6.37;;
3463;SDS011;3551;41.578;24.706;2022-07-29T00:09:30;8.53;;;6.80;;
3463;SDS011;3551;41.578;24.706;2022-07-29T00:11:59;9.67;;;6.80;;
3463;SDS011;3551;41.578;24.706;2022-07-29T00:14:28;14.20;;;6.80;;
3463;SDS011;3551;41.578;24.706;2022-07-29T00:16:55;8.03;;;6.30;;
3463;SDS011;3551;41.578;24.706;2022-07-29T00:19:22;11.70;;;7.23;;
3463;SDS011;3551;41.578;24.706;2022-07-29T00:21:50;9.90;;;7.00;;
3463;SDS011;3551;41.578;24.706;2022-07-29T00:24:17;9.30;;;7.40;;
3463;SDS011;3551;41.578;24.706;2022-07-29T00:26:45;8.77;;;6.30;;
3463;SDS011;3551;41.578;24.706;2022-07-29T00:29:13;16.10;;;7.30;;
3463;SDS011;3551;41.578;24.706;2022-07-29T00:31:41;9.43;;;6.97;;
3463;SDS011;3551;41.578;24.706;2022-07-29T00:34:08;9.00;;;7.10;;
3463;SDS011;3551;41.578;24.706;2022-07-29T00:36:56;8.50;;;6.67;;
3463;SDS011;3551;41.578;24.706;2022-07-29T00:39:22;8.30;;;6.80;;
3463;SDS011;3551;41.578;24.706;2022-07-29T00:41:51;8.57;;;7.07;;
3463;SDS011;3551;41.578;24.706;2022-07-29T00:44:19;9.10;;;7.20;;
3463;SDS011;3551;41.578;24.706;2022-07-29T00:46:46;13.10;;;7.37;;
3463;SDS011;3551;41.578;24.706;2022-07-29T00:49:14;9.70;;;7.13;;
3463;SDS011;3551;41.578;24.706;2022-07-29T00:51:41;11.07;;;7.90;;
3463;SDS011;3551;41.578;24.706;2022-07-29T00:54:08;9.50;;;7.30;;
3463;SDS011;3551;41.578;24.706;2022-07-29T00:56:35;8.80;;;7.60;;
3463;SDS011;3551;41.578;24.706;2022-07-29T00:59:04;12.40;;;6.90;;
3463;SDS011;3551;41.578;24.706;2022-07-29T01:01:31;11.47;;;6.97;;
3463;SDS011;3551;41.578;24.706;2022-07-29T01:03:58;9.27;;;7.23;;
3463;SDS011;3551;41.578;24.706;2022-07-29T01:06:25;17.83;;;7.40;;
3463;SDS011;3551;41.578;24.706;2022-07-29T01:08:53;8.37;;;7.10;;
3463;SDS011;3551;41.578;24.706;2022-07-29T01:11:21;9.93;;;8.00;;
3463;SDS011;3551;41.578;24.706;2022-07-29T01:13:48;9.33;;;7.10;;
3463;SDS011;3551;41.578;24.706;2022-07-29T01:16:18;9.13;;;6.90;;
3463;SDS011;3551;41.578;24.706;2022-07-29T01:18:53;8.20;;;7.03;;
3463;SDS011;3551;41.578;24.706;2022-07-29T01:21:31;13.30;;;7.03;;
3463;SDS011;3551;41.578;24.706;2022-07-29T01:24:25;15.30;;;7.80;;
3463;SDS011;3551;41.578;24.706;2022-07-29T01:27:03;8.67;;;7.20;;
3463;SDS011;3551;41.578;24.706;2022-07-29T01:29:41;8.47;;;7.30;;
3463;SDS011;3551;41.578;24.706;2022-07-29T01:32:12;15.57;;;8.47;;
3463;SDS011;3551;41.578;24.706;2022-07-29T01:34:44;13.27;;;7.27;;
3463;SDS011;3551;41.578;24.706;2022-07-29T01:37:21;9.50;;;7.33;;
3463;SDS011;3551;41.578;24.706;2022-07-29T01:39:53;8.43;;;6.90;;
3463;SDS011;3551;41.578;24.706;2022-07-29T01:42:24;14.27;;;7.43;;
3463;SDS011;3551;41.578;24.706;2022-07-29T01:44:59;8.60;;;7.13;;
3463;SDS011;3551;41.578;24.706;2022-07-29T01:47:31;10.20;;;7.80;;
3463;SDS011;3551;41.578;24.706;2022-07-29T01:50:04;10.13;;;7.87;;
3463;SDS011;3551;41.578;24.706;2022-07-29T01:52:36;9.10;;;7.77;;
3463;SDS011;3551;41.578;24.706;2022-07-29T01:55:07;8.60;;;7.50;;
3463;SDS011;3551;41.578;24.706;2022-07-29T01:57:39;11.50;;;7.57;;
3463;SDS011;3551;41.578;24.706;2022-07-29T02:00:10;10.90;;;7.30;;
3463;SDS011;3551;41.578;24.706;2022-07-29T02:02:40;9.27;;;7.50;;
3463;SDS011;3551;41.578;24.706;2022-07-29T02:05:10;9.90;;;8.53;;
3463;SDS011;3551;41.578;24.706;2022-07-29T02:07:39;9.60;;;7.73;;
3463;SDS011;3551;41.578;24.706;2022-07-29T02:10:08;10.20;;;8.10;;
3463;SDS011;3551;41.578;24.706;2022-07-29T02:12:36;9.60;;;8.00;;
3463;SDS011;3551;41.578;24.706;2022-07-29T02:15:06;11.23;;;8.40;;
3463;SDS011;3551;41.578;24.706;2022-07-29T02:17:39;10.57;;;7.80;;
3463;SDS011;3551;41.578;24.706;2022-07-29T02:20:09;9.80;;;7.53;;
3463;SDS011;3551;41.578;24.706;2022-07-29T02:22:38;8.70;;;7.03;;
3463;SDS011;3551;41.578;24.706;2022-07-29T02:25:06;11.03;;;8.13;;
3463;SDS011;3551;41.578;24.706;2022-07-29T02:27:35;9.90;;;8.10;;
3463;SDS011;3551;41.578;24.706;2022-07-29T02:30:04;12.83;;;8.00;;
3463;SDS011;3551;41.578;24.706;2022-07-29T02:32:35;11.43;;;7.97;;
3463;SDS011;3551;41.578;24.706;2022-07-29T02:35:06;15.73;;;8.80;;
3463;SDS011;3551;41.578;24.706;2022-07-29T02:37:36;10.00;;;8.10;;
3463;SDS011;3551;41.578;24.706;2022-07-29T02:40:04;11.23;;;7.90;;
3463;SDS011;3551;41.578;24.706;2022-07-29T02:42:36;13.43;;;8.13;;
3463;SDS011;3551;41.578;24.706;2022-07-29T02:45:05;9.70;;;7.20;;
3463;SDS011;3551;41.578;24.706;2022-07-29T02:47:34;10.17;;;8.07;;
3463;SDS011;3551;41.578;24.706;2022-07-29T02:50:09;12.10;;;8.63;;
3463;SDS011;3551;41.578;24.706;2022-07-29T02:52:41;8.60;;;7.67;;
3463;SDS011;3551;41.578;24.706;2022-07-29T02:55:29;10.90;;;7.30;;
3463;SDS011;3551;41.578;24.706;2022-07-29T02:58:06;10.47;;;8.40;;
3463;SDS011;3551;41.578;24.706;2022-07-29T03:00:40;10.90;;;7.67;;
3463;SDS011;3551;41.578;24.706;2022-07-29T03:03:12;13.17;;;8.37;;
3463;SDS011;3551;41.578;24.706;2022-07-29T03:05:42;14.50;;;8.87;;
3463;SDS011;3551;41.578;24.706;2022-07-29T03:08:10;11.93;;;7.40;;
3463;SDS011;3551;41.578;24.706;2022-07-29T03:10:39;12.13;;;7.70;;
3463;SDS011;3551;41.578;24.706;2022-07-29T03:13:09;9.27;;;7.30;;
3463;SDS011;3551;41.578;24.706;2022-07-29T03:15:39;10.77;;;8.17;;
3463;SDS011;3551;41.578;24.706;2022-07-29T03:18:06;11.27;;;8.13;;
3463;SDS011;3551;41.578;24.706;2022-07-29T03:20:36;9.80;;;8.10;;
3463;SDS011;3551;41.578;24.706;2022-07-29T03:23:03;11.70;;;8.70;;
3463;SDS011;3551;41.578;24.706;2022-07-29T03:25:31;14.13;;;8.67;;
3463;SDS011;3551;41.578;24.706;2022-07-29T03:27:58;10.87;;;8.50;;
3463;SDS011;3551;41.578;24.706;2022-07-29T03:30:25;12.73;;;8.00;;
3463;SDS011;3551;41.578;24.706;2022-07-29T03:32:56;12.10;;;8.40;;
3463;SDS011;3551;41.578;24.706;2022-07-29T03:35:23;12.80;;;8.90;;
3463;SDS011;3551;41.578;24.706;2022-07-29T03:37:52;10.77;;;8.43;;
3463;SDS011;3551;41.578;24.706;2022-07-29T03:40:22;9.70;;;8.30;;
3463;SDS011;3551;41.578;24.706;2022-07-29T03:42:54;10.17;;;7.73;;
3463;SDS011;3551;41.578;24.706;2022-07-29T03:45:23;11.07;;;8.83;;
3463;SDS011;3551;41.578;24.706;2022-07-29T03:48:48;12.03;;;8.67;;
3463;SDS011;3551;41.578;24.706;2022-07-29T03:51:19;13.13;;;8.97;;
3463;SDS011;3551;41.578;24.706;2022-07-29T03:53:48;16.80;;;8.60;;
3463;SDS011;3551;41.578;24.706;2022-07-29T03:56:16;9.90;;;7.83;;
3463;SDS011;3551;41.578;24.706;2022-07-29T03:58:49;10.93;;;8.77;;
3463;SDS011;3551;41.578;24.706;2022-07-29T04:01:56;11.03;;;9.00;;
3463;SDS011;3551;41.578;24.706;2022-07-29T04:04:24;15.00;;;10.23;;
3463;SDS011;3551;41.578;24.706;2022-07-29T04:06:52;16.03;;;9.20;;
3463;SDS011;3551;41.578;24.706;2022-07-29T04:09:20;14.03;;;7.60;;
3463;SDS011;3551;41.578;24.706;2022-07-29T04:11:48;17.97;;;8.13;;
3463;SDS011;3551;41.578;24.706;2022-07-29T04:14:15;14.47;;;8.93;;
3463;SDS011;3551;41.578;24.706;2022-07-29T04:16:43;16.53;;;8.80;;
3463;SDS011;3551;41.578;24.706;2022-07-29T04:19:12;16.13;;;9.00;;
3463;SDS011;3551;41.578;24.706;2022-07-29T04:21:39;18.57;;;9.73;;
3463;SDS011;3551;41.578;24.706;2022-07-29T04:24:10;23.50;;;9.23;;
3463;SDS011;3551;41.578;24.706;2022-07-29T04:26:39;13.93;;;8.60;;
3463;SDS011;3551;41.578;24.706;2022-07-29T04:29:07;11.90;;;9.40;;
3463;SDS011;3551;41.578;24.706;2022-07-29T04:31:34;10.97;;;8.00;;
3463;SDS011;3551;41.578;24.706;2022-07-29T04:34:01;14.10;;;9.13;;
3463;SDS011;3551;41.578;24.706;2022-07-29T04:36:29;20.40;;;9.43;;
3463;SDS011;3551;41.578;24.706;2022-07-29T04:38:56;28.77;;;10.50;;
3463;SDS011;3551;41.578;24.706;2022-07-29T04:41:23;16.90;;;9.50;;
3463;SDS011;3551;41.578;24.706;2022-07-29T04:43:53;17.33;;;9.40;;
3463;SDS011;3551;41.578;24.706;2022-07-29T04:46:20;12.17;;;8.13;;
3463;SDS011;3551;41.578;24.706;2022-07-29T04:48:48;18.23;;;8.40;;
3463;SDS011;3551;41.578;24.706;2022-07-29T04:51:16;15.27;;;8.93;;
3463;SDS011;3551;41.578;24.706;2022-07-29T04:53:48;11.03;;;8.40;;
3463;SDS011;3551;41.578;24.706;2022-07-29T04:56:16;11.93;;;9.63;;
3463;SDS011;3551;41.578;24.706;2022-07-29T04:58:46;15.33;;;9.80;;
3463;SDS011;3551;41.578;24.706;2022-07-29T05:01:16;17.27;;;10.03;;
3463;SDS011;3551;41.578;24.706;2022-07-29T05:03:44;12.23;;;8.70;;
3463;SDS011;3551;41.578;24.706;2022-07-29T05:06:12;13.67;;;8.40;;
3463;SDS011;3551;41.578;24.706;2022-07-29T05:08:41;11.17;;;8.63;;
3463;SDS011;3551;41.578;24.706;2022-07-29T05:11:09;15.13;;;9.03;;
3463;SDS011;3551;41.578;24.706;2022-07-29T05:13:37;17.80;;;8.67;;
3463;SDS011;3551;41.578;24.706;2022-07-29T05:16:04;11.40;;;9.33;;
3463;SDS011;3551;41.578;24.706;2022-07-29T05:18:34;14.50;;;9.27;;
3463;SDS011;3551;41.578;24.706;2022-07-29T05:21:04;17.57;;;11.10;;
3463;SDS011;3551;41.578;24.706;2022-07-29T05:23:31;11.20;;;8.97;;
3463;SDS011;3551;41.578;24.706;2022-07-29T05:25:58;21.00;;;9.73;;
3463;SDS011;3551;41.578;24.706;2022-07-29T05:28:25;12.87;;;8.80;;
3463;SDS011;3551;41.578;24.706;2022-07-29T05:30:53;13.03;;;8.70;;
3463;SDS011;3551;41.578;24.706;2022-07-29T05:33:20;12.43;;;9.30;;
3463;SDS011;3551;41.578;24.706;2022-07-29T05:35:48;15.80;;;9.80;;
3463;SDS011;3551;41.578;24.706;2022-07-29T05:38:15;12.13;;;8.57;;
3463;SDS011;3551;41.578;24.706;2022-07-29T05:40:42;11.23;;;8.73;;
3463;SDS011;3551;41.578;24.706;2022-07-29T05:43:09;18.40;;;8.33;;
3463;SDS011;3551;41.578;24.706;2022-07-29T05:45:36;11.80;;;7.27;;
3463;SDS011;3551;41.578;24.706;2022-07-29T05:48:05;10.13;;;8.23;;
3463;SDS011;3551;41.578;24.706;2022-07-29T05:50:32;16.07;;;8.10;;
3463;SDS011;3551;41.578;24.706;2022-07-29T05:53:00;8.73;;;7.50;;
3463;SDS011;3551;41.578;24.706;2022-07-29T05:55:27;14.47;;;8.10;;
3463;SDS011;3551;41.578;24.706;2022-07-29T05:57:54;18.13;;;8.43;;
3463;SDS011;3551;41.578;24.706;2022-07-29T06:00:21;12.40;;;7.90;;
3463;SDS011;3551;41.578;24.706;2022-07-29T06:02:48;12.67;;;7.23;;
3463;SDS011;3551;41.578;24.706;2022-07-29T06:05:17;10.60;;;7.60;;
3463;SDS011;3551;41.578;24.706;2022-07-29T06:07:46;8.13;;;6.60;;
3463;SDS011;3551;41.578;24.706;2022-07-29T06:10:15;10.80;;;6.30;;
3463;SDS011;3551;41.578;24.706;2022-07-29T06:12:48;11.90;;;7.63;;
3463;SDS011;3551;41.578;24.706;2022-07-29T06:15:19;12.13;;;6.67;;
3463;SDS011;3551;41.578;24.706;2022-07-29T06:17:51;9.17;;;6.70;;
3463;SDS011;3551;41.578;24.706;2022-07-29T06:20:19;9.83;;;7.00;;
3463;SDS011;3551;41.578;24.706;2022-07-29T06:22:47;12.17;;;7.60;;
3463;SDS011;3551;41.578;24.706;2022-07-29T06:25:18;4.90;;;4.30;;
3463;SDS011;3551;41.578;24.706;2022-07-29T06:27:45;5.70;;;4.93;;
3463;SDS011;3551;41.578;24.706;2022-07-29T06:30:12;10.10;;;5.60;;
3463;SDS011;3551;41.578;24.706;2022-07-29T06:32:39;9.67;;;6.77;;
3463;SDS011;3551;41.578;24.706;2022-07-29T06:35:07;6.37;;;5.67;;
3463;SDS011;3551;41.578;24.706;2022-07-29T06:37:34;7.37;;;5.40;;
3463;SDS011;3551;41.578;24.706;2022-07-29T06:40:03;6.40;;;5.27;;
3463;SDS011;3551;41.578;24.706;2022-07-29T06:42:49;11.50;;;5.60;;
3463;SDS011;3551;41.578;24.706;2022-07-29T06:45:16;5.93;;;5.33;;
3463;SDS011;3551;41.578;24.706;2022-07-29T06:47:43;7.00;;;5.47;;
3463;SDS011;3551;41.578;24.706;2022-07-29T06:50:10;6.77;;;5.10;;
3463;SDS011;3551;41.578;24.706;2022-07-29T06:52:39;6.90;;;4.50;;
3463;SDS011;3551;41.578;24.706;2022-07-29T06:55:06;7.53;;;4.93;;
3463;SDS011;3551;41.578;24.706;2022-07-29T06:57:34;7.23;;;4.67;;
3463;SDS011;3551;41.578;24.706;2022-07-29T07:00:03;4.60;;;2.63;;
3463;SDS011;3551;41.578;24.706;2022-07-29T07:02:31;4.27;;;2.80;;
3463;SDS011;3551;41.578;24.706;2022-07-29T07:05:04;5.60;;;2.77;;
3463;SDS011;3551;41.578;24.706;2022-07-29T07:07:34;3.43;;;2.53;;
3463;SDS011;3551;41.578;24.706;2022-07-29T07:10:01;5.10;;;2.50;;
3463;SDS011;3551;41.578;24.706;2022-07-29T07:12:29;3.67;;;2.70;;
3463;SDS011;3551;41.578;24.706;2022-07-29T07:14:56;8.13;;;2.50;;
3463;SDS011;3551;41.578;24.706;2022-07-29T07:17:25;4.70;;;2.67;;
3463;SDS011;3551;41.578;24.706;2022-07-29T07:19:52;2.50;;;2.20;;
3463;SDS011;3551;41.578;24.706;2022-07-29T07:22:19;2.80;;;2.00;;
3463;SDS011;3551;41.578;24.706;2022-07-29T07:24:46;3.57;;;2.70;;
3463;SDS011;3551;41.578;24.706;2022-07-29T07:27:15;3.57;;;2.57;;
3463;SDS011;3551;41.578;24.706;2022-07-29T07:29:47;4.07;;;2.20;;
3463;SDS011;3551;41.578;24.706;2022-07-29T07:32:15;5.97;;;2.40;;
3463;SDS011;3551;41.578;24.706;2022-07-29T07:34:44;5.87;;;2.90;;
3463;SDS011;3551;41.578;24.706;2022-07-29T07:37:11;2.73;;;2.37;;
3463;SDS011;3551;41.578;24.706;2022-07-29T07:39:39;4.17;;;2.17;;
3463;SDS011;3551;41.578;24.706;2022-07-29T07:42:06;3.03;;;2.30;;
3463;SDS011;3551;41.578;24.706;2022-07-29T07:44:35;3.37;;;2.57;;
3463;SDS011;3551;41.578;24.706;2022-07-29T07:47:02;3.90;;;2.60;;
3463;SDS011;3551;41.578;24.706;2022-07-29T07:49:29;3.13;;;2.47;;
3463;SDS011;3551;41.578;24.706;2022-07-29T07:51:58;7.90;;;3.50;;
3463;SDS011;3551;41.578;24.706;2022-07-29T07:54:25;7.00;;;2.83;;
3463;SDS011;3551;41.578;24.706;2022-07-29T07:56:52;2.63;;;2.27;;
3463;SDS011;3551;41.578;24.706;2022-07-29T07:59:19;4.70;;;2.83;;
3463;SDS011;3551;41.578;24.706;2022-07-29T08:01:46;4.50;;;2.60;;
3463;SDS011;3551;41.578;24.706;2022-07-29T08:04:12;5.33;;;2.50;;
3463;SDS011;3551;41.578;24.706;2022-07-29T08:06:39;4.53;;;2.70;;
3463;SDS011;3551;41.578;24.706;2022-07-29T08:09:08;3.10;;;2.70;;
3463;SDS011;3551;41.578;24.706;2022-07-29T08:11:38;3.53;;;2.40;;
3463;SDS011;3551;41.578;24.706;2022-07-29T08:14:05;4.37;;;2.80;;
3463;SDS011;3551;41.578;24.706;2022-07-29T08:16:33;2.80;;;2.10;;
3463;SDS011;3551;41.578;24.706;2022-07-29T08:18:59;3.10;;;2.40;;
3463;SDS011;3551;41.578;24.706;2022-07-29T08:21:27;4.40;;;2.53;;
3463;SDS011;3551;41.578;24.706;2022-07-29T08:23:54;3.87;;;2.70;;
3463;SDS011;3551;41.578;24.706;2022-07-29T08:26:42;4.23;;;2.50;;
3463;SDS011;3551;41.578;24.706;2022-07-29T08:29:10;3.93;;;3.27;;
3463;SDS011;3551;41.578;24.706;2022-07-29T08:31:37;2.73;;;2.40;;
3463;SDS011;3551;41.578;24.706;2022-07-29T08:34:04;3.00;;;2.47;;
3463;SDS011;3551;41.578;24.706;2022-07-29T08:36:32;3.23;;;2.67;;
3463;SDS011;3551;41.578;24.706;2022-07-29T08:39:00;4.23;;;2.27;;
3463;SDS011;3551;41.578;24.706;2022-07-29T08:41:29;5.10;;;2.90;;
3463;SDS011;3551;41.578;24.706;2022-07-29T08:43:59;6.73;;;2.63;;
3463;SDS011;3551;41.578;24.706;2022-07-29T08:46:47;3.43;;;2.80;;
3463;SDS011;3551;41.578;24.706;2022-07-29T08:49:14;3.33;;;2.40;;
3463;SDS011;3551;41.578;24.706;2022-07-29T08:51:43;2.33;;;2.00;;
3463;SDS011;3551;41.578;24.706;2022-07-29T08:54:11;5.23;;;2.73;;
3463;SDS011;3551;41.578;24.706;2022-07-29T08:56:42;3.40;;;2.60;;
3463;SDS011;3551;41.578;24.706;2022-07-29T08:59:11;3.20;;;2.40;;
3463;SDS011;3551;41.578;24.706;2022-07-29T09:01:41;9.27;;;2.60;;
3463;SDS011;3551;41.578;24.706;2022-07-29T09:04:11;2.97;;;2.53;;
3463;SDS011;3551;41.578;24.706;2022-07-29T09:06:42;4.63;;;2.30;;
3463;SDS011;3551;41.578;24.706;2022-07-29T09:09:11;2.67;;;2.30;;
3463;SDS011;3551;41.578;24.706;2022-07-29T09:11:40;4.70;;;2.80;;
3463;SDS011;3551;41.578;24.706;2022-07-29T09:14:07;6.63;;;2.60;;
3463;SDS011;3551;41.578;24.706;2022-07-29T09:16:46;2.97;;;2.67;;
3463;SDS011;3551;41.578;24.706;2022-07-29T09:19:24;3.30;;;2.30;;
3463;SDS011;3551;41.578;24.706;2022-07-29T09:21:53;2.70;;;2.30;;
3463;SDS011;3551;41.578;24.706;2022-07-29T09:24:35;3.27;;;2.37;;
3463;SDS011;3551;41.578;24.706;2022-07-29T09:27:08;3.00;;;2.70;;
3463;SDS011;3551;41.578;24.706;2022-07-29T09:29:37;3.40;;;2.60;;
3463;SDS011;3551;41.578;24.706;2022-07-29T09:32:08;2.77;;;2.20;;
3463;SDS011;3551;41.578;24.706;2022-07-29T09:34:38;2.70;;;2.43;;
3463;SDS011;3551;41.578;24.706;2022-07-29T09:37:05;3.90;;;2.43;;
3463;SDS011;3551;41.578;24.706;2022-07-29T09:39:33;2.67;;;2.33;;
3463;SDS011;3551;41.578;24.706;2022-07-29T09:42:03;2.90;;;2.53;;
3463;SDS011;3551;41.578;24.706;2022-07-29T09:44:41;3.60;;;2.63;;
3463;SDS011;3551;41.578;24.706;2022-07-29T09:47:11;3.30;;;2.47;;
3463;SDS011;3551;41.578;24.706;2022-07-29T09:49:50;3.37;;;2.40;;
3463;SDS011;3551;41.578;24.706;2022-07-29T09:52:18;2.60;;;2.03;;
3463;SDS011;3551;41.578;24.706;2022-07-29T09:54:45;3.50;;;2.53;;
3463;SDS011;3551;41.578;24.706;2022-07-29T09:57:23;2.93;;;2.23;;
3463;SDS011;3551;41.578;24.706;2022-07-29T09:59:58;5.13;;;2.50;;
3463;SDS011;3551;41.578;24.706;2022-07-29T10:02:31;5.50;;;2.40;;
3463;SDS011;3551;41.578;24.706;2022-07-29T10:04:59;2.90;;;2.50;;
3463;SDS011;3551;41.578;24.706;2022-07-29T10:07:42;3.50;;;2.57;;
3463;SDS011;3551;41.578;24.706;2022-07-29T10:10:17;2.97;;;2.27;;
3463;SDS011;3551;41.578;24.706;2022-07-29T10:12:48;4.30;;;2.80;;
3463;SDS011;3551;41.578;24.706;2022-07-29T10:15:16;5.40;;;2.30;;
3463;SDS011;3551;41.578;24.706;2022-07-29T10:17:45;2.73;;;2.30;;
3463;SDS011;3551;41.578;24.706;2022-07-29T10:20:13;6.67;;;2.80;;
3463;SDS011;3551;41.578;24.706;2022-07-29T10:22:41;5.90;;;2.30;;
3463;SDS011;3551;41.578;24.706;2022-07-29T10:25:09;3.00;;;2.20;;
3463;SDS011;3551;41.578;24.706;2022-07-29T10:27:37;5.40;;;2.40;;
3463;SDS011;3551;41.578;24.706;2022-07-29T10:30:05;4.10;;;2.20;;
3463;SDS011;3551;41.578;24.706;2022-07-29T10:32:37;3.10;;;2.57;;
3463;SDS011;3551;41.578;24.706;2022-07-29T10:35:21;3.70;;;2.43;;
3463;SDS011;3551;41.578;24.706;2022-07-29T10:38:15;2.60;;;2.37;;
3463;SDS011;3551;41.578;24.706;2022-07-29T10:40:59;3.90;;;3.27;;
3463;SDS011;3551;41.578;24.706;2022-07-29T10:43:55;7.37;;;2.73;;
3463;SDS011;3551;41.578;24.706;2022-07-29T10:46:26;3.33;;;2.70;;
3463;SDS011;3551;41.578;24.706;2022-07-29T10:49:04;4.30;;;3.03;;
3463;SDS011;3551;41.578;24.706;2022-07-29T10:51:53;3.03;;;2.57;;
3463;SDS011;3551;41.578;24.706;2022-07-29T10:54:35;4.43;;;2.80;;
3463;SDS011;3551;41.578;24.706;2022-07-29T10:57:17;16.37;;;2.80;;
3463;SDS011;3551;41.578;24.706;2022-07-29T10:59:47;4.63;;;2.60;;
3463;SDS011;3551;41.578;24.706;2022-07-29T11:05:09;6.23;;;3.80;;
3463;SDS011;3551;41.578;24.706;2022-07-29T11:07:38;3.30;;;2.70;;
3463;SDS011;3551;41.578;24.706;2022-07-29T11:12:52;6.03;;;2.30;;
3463;SDS011;3551;41.578;24.706;2022-07-29T11:15:19;3.80;;;3.10;;
3463;SDS011;3551;41.578;24.706;2022-07-29T11:18:04;3.10;;;2.67;;
3463;SDS011;3551;41.578;24.706;2022-07-29T11:20:36;4.10;;;2.80;;
3463;SDS011;3551;41.578;24.706;2022-07-29T11:23:25;5.73;;;2.67;;
3463;SDS011;3551;41.578;24.706;2022-07-29T11:28:57;3.97;;;2.73;;
3463;SDS011;3551;41.578;24.706;2022-07-29T11:31:33;3.80;;;2.57;;
3463;SDS011;3551;41.578;24.706;2022-07-29T11:42:48;7.70;;;3.67;;
3463;SDS011;3551;41.578;24.706;2022-07-29T11:45:17;4.23;;;3.60;;
3463;SDS011;3551;41.578;24.706;2022-07-29T11:47:52;3.20;;;2.57;;
3463;SDS011;3551;41.578;24.706;2022-07-29T11:50:27;5.60;;;2.50;;
3463;SDS011;3551;41.578;24.706;2022-07-29T11:52:56;4.57;;;3.10;;
3463;SDS011;3551;41.578;24.706;2022-07-29T11:55:24;3.60;;;2.30;;
3463;SDS011;3551;41.578;24.706;2022-07-29T11:57:58;5.13;;;3.10;;
3463;SDS011;3551;41.578;24.706;2022-07-29T12:00:28;5.93;;;3.27;;
3463;SDS011;3551;41.578;24.706;2022-07-29T12:02:57;3.07;;;2.37;;
3463;SDS011;3551;41.578;24.706;2022-07-29T12:05:32;3.40;;;3.03;;
3463;SDS011;3551;41.578;24.706;2022-07-29T12:08:05;3.70;;;2.90;;
3463;SDS011;3551;41.578;24.706;2022-07-29T12:10:38;6.13;;;2.93;;
3463;SDS011;3551;41.578;24.706;2022-07-29T12:13:05;3.43;;;2.57;;
3463;SDS011;3551;41.578;24.706;2022-07-29T12:15:33;4.67;;;2.83;;
3463;SDS011;3551;41.578;24.706;2022-07-29T12:18:09;3.87;;;3.37;;
3463;SDS011;3551;41.578;24.706;2022-07-29T12:20:44;4.00;;;3.27;;
3463;SDS011;3551;41.578;24.706;2022-07-29T12:23:11;8.73;;;2.87;;
3463;SDS011;3551;41.578;24.706;2022-07-29T12:25:41;4.63;;;2.83;;
3463;SDS011;3551;41.578;24.706;2022-07-29T12:28:10;4.13;;;3.03;;
3463;SDS011;3551;41.578;24.706;2022-07-29T12:30:39;10.83;;;3.10;;
3463;SDS011;3551;41.578;24.706;2022-07-29T12:33:11;3.80;;;2.67;;
3463;SDS011;3551;41.578;24.706;2022-07-29T12:35:41;5.67;;;2.83;;
3463;SDS011;3551;41.578;24.706;2022-07-29T12:38:09;3.07;;;2.70;;
3463;SDS011;3551;41.578;24.706;2022-07-29T12:40:38;4.87;;;2.87;;
3463;SDS011;3551;41.578;24.706;2022-07-29T12:43:21;3.00;;;2.67;;
3463;SDS011;3551;41.578;24.706;2022-07-29T12:45:51;3.73;;;2.80;;
3463;SDS011;3551;41.578;24.706;2022-07-29T12:48:38;3.23;;;2.70;;
3463;SDS011;3551;41.578;24.706;2022-07-29T12:51:06;4.07;;;2.80;;
3463;SDS011;3551;41.578;24.706;2022-07-29T12:53:35;9.90;;;3.50;;
3463;SDS011;3551;41.578;24.706;2022-07-29T12:56:05;4.30;;;2.90;;
3463;SDS011;3551;41.578;24.706;2022-07-29T12:58:35;3.30;;;2.87;;
3463;SDS011;3551;41.578;24.706;2022-07-29T13:01:07;5.47;;;3.20;;
3463;SDS011;3551;41.578;24.706;2022-07-29T13:03:46;6.93;;;2.93;;
3463;SDS011;3551;41.578;24.706;2022-07-29T13:06:36;3.90;;;2.93;;
3463;SDS011;3551;41.578;24.706;2022-07-29T13:09:05;4.73;;;3.40;;
3463;SDS011;3551;41.578;24.706;2022-07-29T13:11:36;3.47;;;2.83;;
3463;SDS011;3551;41.578;24.706;2022-07-29T13:14:06;9.53;;;3.73;;
3463;SDS011;3551;41.578;24.706;2022-07-29T13:16:35;7.33;;;3.10;;
3463;SDS011;3551;41.578;24.706;2022-07-29T13:19:31;8.47;;;3.20;;
3463;SDS011;3551;41.578;24.706;2022-07-29T13:22:00;4.40;;;3.50;;
3463;SDS011;3551;41.578;24.706;2022-07-29T13:24:27;4.80;;;2.67;;
3463;SDS011;3551;41.578;24.706;2022-07-29T13:26:54;4.87;;;3.63;;
3463;SDS011;3551;41.578;24.706;2022-07-29T13:29:22;3.27;;;2.77;;
3463;SDS011;3551;41.578;24.706;2022-07-29T13:31:51;4.50;;;3.67;;
3463;SDS011;3551;41.578;24.706;2022-07-29T13:34:18;3.93;;;3.00;;
3463;SDS011;3551;41.578;24.706;2022-07-29T13:36:47;5.40;;;3.70;;
3463;SDS011;3551;41.578;24.706;2022-07-29T13:39:14;3.20;;;2.90;;
3463;SDS011;3551;41.578;24.706;2022-07-29T13:41:41;3.57;;;3.03;;
3463;SDS011;3551;41.578;24.706;2022-07-29T13:44:08;5.80;;;2.83;;
3463;SDS011;3551;41.578;24.706;2022-07-29T13:46:36;3.70;;;2.87;;
3463;SDS011;3551;41.578;24.706;2022-07-29T13:49:03;3.50;;;3.13;;
3463;SDS011;3551;41.578;24.706;2022-07-29T13:51:30;4.57;;;3.03;;
3463;SDS011;3551;41.578;24.706;2022-07-29T13:53:57;4.63;;;3.40;;
3463;SDS011;3551;41.578;24.706;2022-07-29T13:56:24;4.53;;;3.03;;
3463;SDS011;3551;41.578;24.706;2022-07-29T13:58:51;5.70;;;3.17;;
3463;SDS011;3551;41.578;24.706;2022-07-29T14:01:21;3.40;;;3.00;;
3463;SDS011;3551;41.578;24.706;2022-07-29T14:03:49;4.70;;;3.80;;
3463;SDS011;3551;41.578;24.706;2022-07-29T14:06:16;8.10;;;3.97;;
3463;SDS011;3551;41.578;24.706;2022-07-29T14:08:44;5.37;;;3.90;;
3463;SDS011;3551;41.578;24.706;2022-07-29T14:11:11;6.80;;;4.73;;
3463;SDS011;3551;41.578;24.706;2022-07-29T14:13:38;6.87;;;4.23;;
3463;SDS011;3551;41.578;24.706;2022-07-29T14:16:05;5.87;;;4.17;;
3463;SDS011;3551;41.578;24.706;2022-07-29T14:18:32;8.30;;;3.53;;
3463;SDS011;3551;41.578;24.706;2022-07-29T14:21:00;8.10;;;4.03;;
3463;SDS011;3551;41.578;24.706;2022-07-29T14:23:28;4.00;;;3.27;;
3463;SDS011;3551;41.578;24.706;2022-07-29T14:25:55;8.40;;;3.60;;
3463;SDS011;3551;41.578;24.706;2022-07-29T14:28:22;5.00;;;3.70;;
3463;SDS011;3551;41.578;24.706;2022-07-29T14:30:49;6.80;;;4.33;;
3463;SDS011;3551;41.578;24.706;2022-07-29T14:33:16;6.47;;;4.47;;
3463;SDS011;3551;41.578;24.706;2022-07-29T14:35:46;4.60;;;4.00;;
3463;SDS011;3551;41.578;24.706;2022-07-29T14:38:14;5.30;;;3.83;;
3463;SDS011;3551;41.578;24.706;2022-07-29T14:40:42;4.57;;;4.07;;
3463;SDS011;3551;41.578;24.706;2022-07-29T14:43:09;8.23;;;4.33;;
3463;SDS011;3551;41.578;24.706;2022-07-29T14:45:35;6.50;;;3.70;;
3463;SDS011;3551;41.578;24.706;2022-07-29T14:48:02;5.03;;;3.73;;
3463;SDS011;3551;41.578;24.706;2022-07-29T14:50:29;6.57;;;4.00;;
3463;SDS011;3551;41.578;24.706;2022-07-29T14:52:57;4.93;;;4.30;;
3463;SDS011;3551;41.578;24.706;2022-07-29T14:55:25;10.03;;;4.20;;
3463;SDS011;3551;41.578;24.706;2022-07-29T14:57:52;4.43;;;3.90;;
3463;SDS011;3551;41.578;24.706;2022-07-29T15:00:20;16.40;;;4.40;;
3463;SDS011;3551;41.578;24.706;2022-07-29T15:02:47;6.77;;;4.27;;
3463;SDS011;3551;41.578;24.706;2022-07-29T15:05:15;7.97;;;4.70;;
3463;SDS011;3551;41.578;24.706;2022-07-29T15:07:42;5.40;;;4.67;;
3463;SDS011;3551;41.578;24.706;2022-07-29T15:10:09;4.13;;;3.73;;
3463;SDS011;3551;41.578;24.706;2022-07-29T15:12:37;5.60;;;4.20;;
3463;SDS011;3551;41.578;24.706;2022-07-29T15:15:05;8.50;;;4.60;;
3463;SDS011;3551;41.578;24.706;2022-07-29T15:17:33;5.83;;;4.27;;
3463;SDS011;3551;41.578;24.706;2022-07-29T15:20:01;13.00;;;4.70;;
3463;SDS011;3551;41.578;24.706;2022-07-29T15:22:29;6.20;;;4.20;;
3463;SDS011;3551;41.578;24.706;2022-07-29T15:24:56;5.13;;;3.80;;
3463;SDS011;3551;41.578;24.706;2022-07-29T15:27:23;4.63;;;4.03;;
3463;SDS011;3551;41.578;24.706;2022-07-29T15:29:52;8.97;;;4.53;;
3463;SDS011;3551;41.578;24.706;2022-07-29T15:32:19;8.20;;;4.83;;
3463;SDS011;3551;41.578;24.706;2022-07-29T15:34:47;5.27;;;4.77;;